메인 페이지
METAR-TAF:

METAR-TAF

공항 :

키슬러 공군 기지

빌럭시, 미시시피, 미국

위도: 30-25N, 경도: 088-55W, 고도: 10m

현재 날씨관측

예보는 18분 전, 00:56시(UTC)에 발표되었습니다.
5kt
온도 20°C
습도 78%
기압 1017 hPa
시정: 16.1km
맑음

METAR: KBIX 240056Z AUTO 17005KT 10SM CLR 20/16 A3004 RMK AO2 SLP175 T02040162

시각: 20:14 (01:14 UTC)

예보

예보는 7 시간 14분 전, 18:00시(UTC)에 발표되었습니다.
예보 대상 시간: 23일 18시부터 24일 24시까지 (UTC)
남동6kt
시정 10km 이상
고도 25000ft 상공 구름 보통
전환 중
24일 03시부터 24일 04시까지 (UTC)
여러 방향의 바람 6kt
시정 10km 이상
고도 25000ft 상공 구름 많음
전환 중
24일 08시부터 24일 09시까지 (UTC)
여러 방향의 바람 6kt
시정 10km 이상
고도 400ft 상공 구름 보통
일시적
24일 09시부터 24일 12시까지 (UTC)
시정: 3200m
박무
전환 중
24일 12시부터 24일 13시까지 (UTC)
여러 방향의 바람 6kt
시정 10km 이상
고도 2000ft 상공 구름 보통
고도 10000ft 상공 구름 보통

TAF: KBIX 231800Z 2318/2424 14006KT 9999 SCT250 QNH3006INS BECMG 2403/2404 VRB06KT 9999 BKN250 QNH3001INS BECMG 2408/2409 VRB06KT 9999 SCT004 QNH2997INS TEMPO 2409/2412 3200 BR BECMG 2412/2413 VRB06KT 9999 SCT020 SCT100 QNH2994INS TX24/2318Z TN17/2412Z

4,000개 이상의 공항 관측 자료 및 예보 (METAR 및 TAF 보고).

지도상에서 검색 가능한 기상관측소가 노란 점과 빨간 점으로 표시되어 있습니다.

기상관측소 명을 보려면 표시 위로 마우스를 이동하세요.

날씨 관측과 예보를 보려면 클릭하세요.

지도 변경 : 확대하려면 엑스 표시가 있는 녹색 버튼, 축소하려면 빼기 표시가 있는 녹색 버튼, 다음 페이지의 지도를 보려면 녹색 화살표를 클릭하세요.


METAR-TAF: